sensor_id;sensor_type;location;lat;lon;timestamp;P1;durP1;ratioP1;P2;durP2;ratioP2
2021;SDS011;1015;49.756;6.994;2022-10-16T00:01:15;3.87;;;3.57;;
2021;SDS011;1015;49.756;6.994;2022-10-16T00:03:45;4.80;;;3.50;;
2021;SDS011;1015;49.756;6.994;2022-10-16T00:06:13;3.77;;;3.47;;
2021;SDS011;1015;49.756;6.994;2022-10-16T00:08:42;4.63;;;3.90;;
2021;SDS011;1015;49.756;6.994;2022-10-16T00:11:11;4.30;;;3.90;;
2021;SDS011;1015;49.756;6.994;2022-10-16T00:13:40;3.93;;;3.63;;
2021;SDS011;1015;49.756;6.994;2022-10-16T00:16:09;3.77;;;3.47;;
2021;SDS011;1015;49.756;6.994;2022-10-16T00:18:37;4.43;;;3.27;;
2021;SDS011;1015;49.756;6.994;2022-10-16T00:21:08;4.20;;;3.40;;
2021;SDS011;1015;49.756;6.994;2022-10-16T00:23:36;4.97;;;3.60;;
2021;SDS011;1015;49.756;6.994;2022-10-16T00:26:06;3.57;;;3.27;;
2021;SDS011;1015;49.756;6.994;2022-10-16T00:28:36;4.00;;;3.40;;
2021;SDS011;1015;49.756;6.994;2022-10-16T00:31:04;3.90;;;3.53;;
2021;SDS011;1015;49.756;6.994;2022-10-16T00:33:31;3.87;;;3.10;;
2021;SDS011;1015;49.756;6.994;2022-10-16T00:35:59;5.20;;;3.23;;
2021;SDS011;1015;49.756;6.994;2022-10-16T00:38:27;5.10;;;3.43;;
2021;SDS011;1015;49.756;6.994;2022-10-16T00:40:55;4.50;;;3.27;;
2021;SDS011;1015;49.756;6.994;2022-10-16T00:43:32;4.27;;;3.90;;
2021;SDS011;1015;49.756;6.994;2022-10-16T00:46:02;4.07;;;3.57;;
2021;SDS011;1015;49.756;6.994;2022-10-16T00:48:30;3.77;;;3.47;;
2021;SDS011;1015;49.756;6.994;2022-10-16T00:50:58;3.73;;;3.43;;
2021;SDS011;1015;49.756;6.994;2022-10-16T00:53:25;3.37;;;3.10;;
2021;SDS011;1015;49.756;6.994;2022-10-16T00:55:55;4.30;;;3.33;;
2021;SDS011;1015;49.756;6.994;2022-10-16T00:58:22;3.50;;;3.20;;
2021;SDS011;1015;49.756;6.994;2022-10-16T01:00:49;5.30;;;3.60;;
2021;SDS011;1015;49.756;6.994;2022-10-16T01:03:23;4.23;;;3.30;;
2021;SDS011;1015;49.756;6.994;2022-10-16T01:05:55;4.40;;;3.10;;
2021;SDS011;1015;49.756;6.994;2022-10-16T01:08:36;3.17;;;2.87;;
2021;SDS011;1015;49.756;6.994;2022-10-16T01:11:12;3.57;;;2.63;;
2021;SDS011;1015;49.756;6.994;2022-10-16T01:13:46;3.70;;;2.80;;
2021;SDS011;1015;49.756;6.994;2022-10-16T01:16:17;3.40;;;3.10;;
2021;SDS011;1015;49.756;6.994;2022-10-16T01:18:54;3.47;;;3.00;;
2021;SDS011;1015;49.756;6.994;2022-10-16T01:21:29;3.67;;;2.70;;
2021;SDS011;1015;49.756;6.994;2022-10-16T01:24:03;3.33;;;3.00;;
2021;SDS011;1015;49.756;6.994;2022-10-16T01:26:43;2.30;;;2.10;;
2021;SDS011;1015;49.756;6.994;2022-10-16T01:29:28;3.00;;;2.53;;
2021;SDS011;1015;49.756;6.994;2022-10-16T01:32:02;2.97;;;2.77;;
2021;SDS011;1015;49.756;6.994;2022-10-16T01:34:37;2.77;;;2.50;;
2021;SDS011;1015;49.756;6.994;2022-10-16T01:37:09;2.50;;;2.30;;
2021;SDS011;1015;49.756;6.994;2022-10-16T01:39:41;4.00;;;2.33;;
2021;SDS011;1015;49.756;6.994;2022-10-16T01:42:15;2.60;;;2.40;;
2021;SDS011;1015;49.756;6.994;2022-10-16T01:44:45;2.60;;;2.40;;
2021;SDS011;1015;49.756;6.994;2022-10-16T01:47:14;2.20;;;2.00;;
2021;SDS011;1015;49.756;6.994;2022-10-16T01:49:44;1.90;;;1.80;;
2021;SDS011;1015;49.756;6.994;2022-10-16T01:52:13;2.03;;;1.83;;
2021;SDS011;1015;49.756;6.994;2022-10-16T01:54:43;2.10;;;1.90;;
2021;SDS011;1015;49.756;6.994;2022-10-16T01:57:15;2.40;;;2.20;;
2021;SDS011;1015;49.756;6.994;2022-10-16T01:59:44;3.93;;;2.23;;
2021;SDS011;1015;49.756;6.994;2022-10-16T02:02:15;2.20;;;2.00;;
2021;SDS011;1015;49.756;6.994;2022-10-16T02:04:46;4.13;;;1.90;;
2021;SDS011;1015;49.756;6.994;2022-10-16T02:07:18;2.33;;;2.20;;
2021;SDS011;1015;49.756;6.994;2022-10-16T02:09:45;2.83;;;1.70;;
2021;SDS011;1015;49.756;6.994;2022-10-16T02:12:15;2.10;;;2.00;;
2021;SDS011;1015;49.756;6.994;2022-10-16T02:14:48;2.83;;;2.10;;
2021;SDS011;1015;49.756;6.994;2022-10-16T02:17:17;2.13;;;1.93;;
2021;SDS011;1015;49.756;6.994;2022-10-16T02:19:45;2.57;;;1.90;;
2021;SDS011;1015;49.756;6.994;2022-10-16T02:22:15;2.47;;;1.70;;
2021;SDS011;1015;49.756;6.994;2022-10-16T02:24:49;1.27;;;1.17;;
2021;SDS011;1015;49.756;6.994;2022-10-16T02:27:20;1.80;;;1.40;;
2021;SDS011;1015;49.756;6.994;2022-10-16T02:29:53;1.60;;;1.50;;
2021;SDS011;1015;49.756;6.994;2022-10-16T02:32:27;1.47;;;1.37;;
2021;SDS011;1015;49.756;6.994;2022-10-16T02:34:58;1.50;;;1.40;;
2021;SDS011;1015;49.756;6.994;2022-10-16T02:37:26;1.40;;;1.30;;
2021;SDS011;1015;49.756;6.994;2022-10-16T02:39:54;1.30;;;1.20;;
2021;SDS011;1015;49.756;6.994;2022-10-16T02:42:28;1.30;;;1.20;;
2021;SDS011;1015;49.756;6.994;2022-10-16T02:44:59;1.17;;;1.07;;
2021;SDS011;1015;49.756;6.994;2022-10-16T02:47:26;1.20;;;1.10;;
2021;SDS011;1015;49.756;6.994;2022-10-16T02:49:53;1.30;;;1.20;;
2021;SDS011;1015;49.756;6.994;2022-10-16T02:52:20;1.47;;;1.37;;
2021;SDS011;1015;49.756;6.994;2022-10-16T02:54:48;1.27;;;1.17;;
2021;SDS011;1015;49.756;6.994;2022-10-16T02:57:15;1.63;;;1.13;;
2021;SDS011;1015;49.756;6.994;2022-10-16T02:59:43;1.40;;;1.30;;
2021;SDS011;1015;49.756;6.994;2022-10-16T03:02:11;2.40;;;1.40;;
2021;SDS011;1015;49.756;6.994;2022-10-16T03:04:39;1.83;;;1.13;;
2021;SDS011;1015;49.756;6.994;2022-10-16T03:07:06;1.30;;;1.20;;
2021;SDS011;1015;49.756;6.994;2022-10-16T03:09:33;1.50;;;1.10;;
2021;SDS011;1015;49.756;6.994;2022-10-16T03:12:01;2.77;;;1.30;;
2021;SDS011;1015;49.756;6.994;2022-10-16T03:14:28;4.33;;;1.47;;
2021;SDS011;1015;49.756;6.994;2022-10-16T03:16:57;2.10;;;1.30;;
2021;SDS011;1015;49.756;6.994;2022-10-16T03:19:24;2.43;;;1.60;;
2021;SDS011;1015;49.756;6.994;2022-10-16T03:21:51;1.40;;;1.30;;
2021;SDS011;1015;49.756;6.994;2022-10-16T03:24:18;1.43;;;1.30;;
2021;SDS011;1015;49.756;6.994;2022-10-16T03:26:46;1.60;;;1.50;;
2021;SDS011;1015;49.756;6.994;2022-10-16T03:29:13;1.80;;;1.70;;
2021;SDS011;1015;49.756;6.994;2022-10-16T03:31:40;1.83;;;1.60;;
2021;SDS011;1015;49.756;6.994;2022-10-16T03:34:09;1.73;;;1.63;;
2021;SDS011;1015;49.756;6.994;2022-10-16T03:36:36;2.33;;;1.60;;
2021;SDS011;1015;49.756;6.994;2022-10-16T03:39:03;2.00;;;1.67;;
2021;SDS011;1015;49.756;6.994;2022-10-16T03:41:30;2.93;;;1.47;;
2021;SDS011;1015;49.756;6.994;2022-10-16T03:43:57;2.07;;;1.80;;
2021;SDS011;1015;49.756;6.994;2022-10-16T03:46:24;1.83;;;1.50;;
2021;SDS011;1015;49.756;6.994;2022-10-16T03:48:52;2.73;;;1.70;;
2021;SDS011;1015;49.756;6.994;2022-10-16T03:51:20;2.27;;;1.67;;
2021;SDS011;1015;49.756;6.994;2022-10-16T03:53:48;1.70;;;1.60;;
2021;SDS011;1015;49.756;6.994;2022-10-16T03:56:15;1.47;;;1.37;;
2021;SDS011;1015;49.756;6.994;2022-10-16T03:58:42;1.87;;;1.40;;
2021;SDS011;1015;49.756;6.994;2022-10-16T04:01:10;1.57;;;1.47;;
2021;SDS011;1015;49.756;6.994;2022-10-16T04:03:37;2.10;;;1.60;;
2021;SDS011;1015;49.756;6.994;2022-10-16T04:06:04;1.73;;;1.43;;
2021;SDS011;1015;49.756;6.994;2022-10-16T04:08:33;2.10;;;1.63;;
2021;SDS011;1015;49.756;6.994;2022-10-16T04:11:02;3.37;;;2.30;;
2021;SDS011;1015;49.756;6.994;2022-10-16T04:13:29;2.60;;;2.40;;
2021;SDS011;1015;49.756;6.994;2022-10-16T04:15:56;2.80;;;2.60;;
2021;SDS011;1015;49.756;6.994;2022-10-16T04:18:24;2.77;;;2.30;;
2021;SDS011;1015;49.756;6.994;2022-10-16T04:20:52;2.60;;;2.23;;
2021;SDS011;1015;49.756;6.994;2022-10-16T04:23:19;3.03;;;2.67;;
2021;SDS011;1015;49.756;6.994;2022-10-16T04:25:49;3.10;;;2.57;;
2021;SDS011;1015;49.756;6.994;2022-10-16T04:28:17;3.70;;;2.60;;
2021;SDS011;1015;49.756;6.994;2022-10-16T04:30:44;2.97;;;2.67;;
2021;SDS011;1015;49.756;6.994;2022-10-16T04:33:11;5.00;;;2.50;;
2021;SDS011;1015;49.756;6.994;2022-10-16T04:35:39;2.60;;;2.40;;
2021;SDS011;1015;49.756;6.994;2022-10-16T04:38:06;2.83;;;2.47;;
2021;SDS011;1015;49.756;6.994;2022-10-16T04:40:33;2.40;;;2.10;;
2021;SDS011;1015;49.756;6.994;2022-10-16T04:43:03;2.43;;;2.23;;
2021;SDS011;1015;49.756;6.994;2022-10-16T04:45:31;3.00;;;2.70;;
2021;SDS011;1015;49.756;6.994;2022-10-16T04:47:58;3.17;;;2.20;;
2021;SDS011;1015;49.756;6.994;2022-10-16T04:50:25;2.40;;;2.20;;
2021;SDS011;1015;49.756;6.994;2022-10-16T04:52:52;2.27;;;2.07;;
2021;SDS011;1015;49.756;6.994;2022-10-16T04:55:20;2.40;;;2.20;;
2021;SDS011;1015;49.756;6.994;2022-10-16T04:57:47;3.70;;;2.70;;
2021;SDS011;1015;49.756;6.994;2022-10-16T05:00:16;2.73;;;2.53;;
2021;SDS011;1015;49.756;6.994;2022-10-16T05:02:43;2.40;;;2.20;;
2021;SDS011;1015;49.756;6.994;2022-10-16T05:05:10;2.30;;;2.10;;
2021;SDS011;1015;49.756;6.994;2022-10-16T05:07:39;4.30;;;2.50;;
2021;SDS011;1015;49.756;6.994;2022-10-16T05:10:06;2.80;;;2.60;;
2021;SDS011;1015;49.756;6.994;2022-10-16T05:12:34;4.80;;;2.60;;
2021;SDS011;1015;49.756;6.994;2022-10-16T05:15:01;5.70;;;2.90;;
2021;SDS011;1015;49.756;6.994;2022-10-16T05:17:30;5.37;;;2.70;;
2021;SDS011;1015;49.756;6.994;2022-10-16T05:19:57;3.07;;;2.77;;
2021;SDS011;1015;49.756;6.994;2022-10-16T05:22:24;2.43;;;2.23;;
2021;SDS011;1015;49.756;6.994;2022-10-16T05:24:52;3.07;;;2.80;;
2021;SDS011;1015;49.756;6.994;2022-10-16T05:27:19;2.90;;;2.43;;
2021;SDS011;1015;49.756;6.994;2022-10-16T05:29:46;3.40;;;2.33;;
2021;SDS011;1015;49.756;6.994;2022-10-16T05:32:14;3.80;;;3.10;;
2021;SDS011;1015;49.756;6.994;2022-10-16T05:34:44;3.30;;;2.47;;
2021;SDS011;1015;49.756;6.994;2022-10-16T05:37:11;4.70;;;2.50;;
2021;SDS011;1015;49.756;6.994;2022-10-16T05:39:38;3.77;;;2.67;;
2021;SDS011;1015;49.756;6.994;2022-10-16T05:42:06;2.93;;;2.73;;
2021;SDS011;1015;49.756;6.994;2022-10-16T05:44:33;2.70;;;2.50;;
2021;SDS011;1015;49.756;6.994;2022-10-16T05:47:00;3.00;;;2.37;;
2021;SDS011;1015;49.756;6.994;2022-10-16T05:49:28;2.53;;;2.33;;
2021;SDS011;1015;49.756;6.994;2022-10-16T05:51:56;3.23;;;2.70;;
2021;SDS011;1015;49.756;6.994;2022-10-16T05:54:23;2.43;;;2.23;;
2021;SDS011;1015;49.756;6.994;2022-10-16T05:56:51;2.20;;;2.00;;
2021;SDS011;1015;49.756;6.994;2022-10-16T05:59:18;2.30;;;2.10;;
2021;SDS011;1015;49.756;6.994;2022-10-16T06:01:45;3.77;;;2.13;;
2021;SDS011;1015;49.756;6.994;2022-10-16T06:04:12;2.37;;;2.17;;
2021;SDS011;1015;49.756;6.994;2022-10-16T06:06:39;2.07;;;1.87;;
2021;SDS011;1015;49.756;6.994;2022-10-16T06:09:09;3.20;;;2.00;;
2021;SDS011;1015;49.756;6.994;2022-10-16T06:11:36;4.20;;;2.13;;
2021;SDS011;1015;49.756;6.994;2022-10-16T06:14:03;2.93;;;1.93;;
2021;SDS011;1015;49.756;6.994;2022-10-16T06:16:32;1.87;;;1.77;;
2021;SDS011;1015;49.756;6.994;2022-10-16T06:19:00;2.90;;;2.00;;
2021;SDS011;1015;49.756;6.994;2022-10-16T06:21:28;2.17;;;1.97;;
2021;SDS011;1015;49.756;6.994;2022-10-16T06:23:55;2.57;;;2.37;;
2021;SDS011;1015;49.756;6.994;2022-10-16T06:26:25;2.57;;;2.37;;
2021;SDS011;1015;49.756;6.994;2022-10-16T06:28:53;2.13;;;1.93;;
2021;SDS011;1015;49.756;6.994;2022-10-16T06:31:21;3.33;;;2.23;;
2021;SDS011;1015;49.756;6.994;2022-10-16T06:33:52;4.93;;;2.33;;
2021;SDS011;1015;49.756;6.994;2022-10-16T06:36:21;5.83;;;2.80;;
2021;SDS011;1015;49.756;6.994;2022-10-16T06:38:49;3.20;;;2.47;;
2021;SDS011;1015;49.756;6.994;2022-10-16T06:41:17;3.40;;;3.10;;
2021;SDS011;1015;49.756;6.994;2022-10-16T06:43:47;4.47;;;3.27;;
2021;SDS011;1015;49.756;6.994;2022-10-16T06:46:15;4.97;;;2.90;;
2021;SDS011;1015;49.756;6.994;2022-10-16T06:48:43;3.90;;;2.90;;
2021;SDS011;1015;49.756;6.994;2022-10-16T06:51:12;3.97;;;2.77;;
2021;SDS011;1015;49.756;6.994;2022-10-16T06:53:41;4.83;;;2.97;;
2021;SDS011;1015;49.756;6.994;2022-10-16T06:56:09;4.23;;;3.50;;
2021;SDS011;1015;49.756;6.994;2022-10-16T06:58:38;4.27;;;2.87;;
2021;SDS011;1015;49.756;6.994;2022-10-16T07:01:07;4.00;;;3.20;;
2021;SDS011;1015;49.756;6.994;2022-10-16T07:03:35;5.03;;;3.37;;
2021;SDS011;1015;49.756;6.994;2022-10-16T07:06:03;4.90;;;3.80;;
2021;SDS011;1015;49.756;6.994;2022-10-16T07:08:32;3.43;;;2.97;;
2021;SDS011;1015;49.756;6.994;2022-10-16T07:10:59;4.23;;;3.57;;
2021;SDS011;1015;49.756;6.994;2022-10-16T07:13:27;5.13;;;3.90;;
2021;SDS011;1015;49.756;6.994;2022-10-16T07:15:54;4.10;;;2.93;;
2021;SDS011;1015;49.756;6.994;2022-10-16T07:18:23;6.00;;;3.03;;
2021;SDS011;1015;49.756;6.994;2022-10-16T07:20:52;4.03;;;3.37;;
2021;SDS011;1015;49.756;6.994;2022-10-16T07:23:19;5.83;;;2.90;;
2021;SDS011;1015;49.756;6.994;2022-10-16T07:25:53;5.00;;;3.40;;
2021;SDS011;1015;49.756;6.994;2022-10-16T07:28:20;5.93;;;3.90;;
2021;SDS011;1015;49.756;6.994;2022-10-16T07:30:51;4.53;;;4.07;;
2021;SDS011;1015;49.756;6.994;2022-10-16T07:33:20;5.60;;;3.90;;
2021;SDS011;1015;49.756;6.994;2022-10-16T07:35:52;7.67;;;4.93;;
2021;SDS011;1015;49.756;6.994;2022-10-16T07:38:20;5.80;;;4.30;;
2021;SDS011;1015;49.756;6.994;2022-10-16T07:40:48;7.40;;;5.10;;
2021;SDS011;1015;49.756;6.994;2022-10-16T07:43:22;5.50;;;4.87;;
2021;SDS011;1015;49.756;6.994;2022-10-16T07:45:49;7.60;;;5.00;;
2021;SDS011;1015;49.756;6.994;2022-10-16T07:48:17;6.30;;;4.57;;
2021;SDS011;1015;49.756;6.994;2022-10-16T07:50:48;7.10;;;4.77;;
2021;SDS011;1015;49.756;6.994;2022-10-16T07:53:17;7.30;;;4.73;;
2021;SDS011;1015;49.756;6.994;2022-10-16T07:55:44;8.20;;;4.83;;
2021;SDS011;1015;49.756;6.994;2022-10-16T07:58:12;6.73;;;4.80;;
2021;SDS011;1015;49.756;6.994;2022-10-16T08:00:39;4.80;;;4.10;;
2021;SDS011;1015;49.756;6.994;2022-10-16T08:03:09;5.60;;;4.20;;
2021;SDS011;1015;49.756;6.994;2022-10-16T08:05:38;5.50;;;4.13;;
2021;SDS011;1015;49.756;6.994;2022-10-16T08:08:06;3.80;;;3.40;;
2021;SDS011;1015;49.756;6.994;2022-10-16T08:10:40;3.03;;;2.70;;
2021;SDS011;1015;49.756;6.994;2022-10-16T08:13:10;3.30;;;3.00;;
2021;SDS011;1015;49.756;6.994;2022-10-16T08:15:41;3.53;;;3.23;;
2021;SDS011;1015;49.756;6.994;2022-10-16T08:18:08;3.87;;;3.40;;
2021;SDS011;1015;49.756;6.994;2022-10-16T08:20:37;3.37;;;3.07;;
2021;SDS011;1015;49.756;6.994;2022-10-16T08:23:04;3.90;;;3.50;;
2021;SDS011;1015;49.756;6.994;2022-10-16T08:25:34;6.23;;;3.70;;
2021;SDS011;1015;49.756;6.994;2022-10-16T08:28:08;5.27;;;4.60;;
2021;SDS011;1015;49.756;6.994;2022-10-16T08:30:37;5.10;;;4.63;;
2021;SDS011;1015;49.756;6.994;2022-10-16T08:33:07;7.10;;;5.60;;
2021;SDS011;1015;49.756;6.994;2022-10-16T08:35:35;5.83;;;5.23;;
2021;SDS011;1015;49.756;6.994;2022-10-16T08:38:02;6.43;;;5.30;;
2021;SDS011;1015;49.756;6.994;2022-10-16T08:40:30;8.47;;;6.70;;
2021;SDS011;1015;49.756;6.994;2022-10-16T08:45:59;9.10;;;7.60;;
2021;SDS011;1015;49.756;6.994;2022-10-16T08:48:45;11.30;;;8.60;;
2021;SDS011;1015;49.756;6.994;2022-10-16T08:51:19;10.40;;;8.73;;
2021;SDS011;1015;49.756;6.994;2022-10-16T08:53:52;11.10;;;8.33;;
2021;SDS011;1015;49.756;6.994;2022-10-16T08:56:22;12.13;;;9.07;;
2021;SDS011;1015;49.756;6.994;2022-10-16T08:58:52;12.23;;;8.97;;
2021;SDS011;1015;49.756;6.994;2022-10-16T09:01:21;10.60;;;8.00;;
2021;SDS011;1015;49.756;6.994;2022-10-16T09:06:50;9.97;;;8.20;;
2021;SDS011;1015;49.756;6.994;2022-10-16T09:12:26;7.93;;;6.43;;
2021;SDS011;1015;49.756;6.994;2022-10-16T09:15:03;6.13;;;5.43;;
2021;SDS011;1015;49.756;6.994;2022-10-16T09:17:44;5.70;;;5.10;;
2021;SDS011;1015;49.756;6.994;2022-10-16T09:20:32;9.80;;;5.70;;
2021;SDS011;1015;49.756;6.994;2022-10-16T09:23:14;7.03;;;5.97;;
2021;SDS011;1015;49.756;6.994;2022-10-16T09:25:43;5.67;;;5.10;;
2021;SDS011;1015;49.756;6.994;2022-10-16T09:28:14;5.00;;;4.50;;
2021;SDS011;1015;49.756;6.994;2022-10-16T09:30:43;3.20;;;2.97;;
2021;SDS011;1015;49.756;6.994;2022-10-16T09:33:12;3.03;;;2.73;;
2021;SDS011;1015;49.756;6.994;2022-10-16T09:35:40;3.33;;;3.03;;
2021;SDS011;1015;49.756;6.994;2022-10-16T09:38:20;3.20;;;2.50;;
2021;SDS011;1015;49.756;6.994;2022-10-16T09:40:49;2.70;;;2.50;;
2021;SDS011;1015;49.756;6.994;2022-10-16T09:43:19;3.10;;;2.20;;
2021;SDS011;1015;49.756;6.994;2022-10-16T09:45:58;2.53;;;2.33;;
2021;SDS011;1015;49.756;6.994;2022-10-16T09:48:28;3.20;;;2.40;;
2021;SDS011;1015;49.756;6.994;2022-10-16T09:51:00;2.63;;;2.43;;
2021;SDS011;1015;49.756;6.994;2022-10-16T09:53:40;2.40;;;2.13;;
2021;SDS011;1015;49.756;6.994;2022-10-16T09:56:10;3.17;;;2.43;;
2021;SDS011;1015;49.756;6.994;2022-10-16T09:58:43;2.40;;;2.20;;
2021;SDS011;1015;49.756;6.994;2022-10-16T10:01:19;2.77;;;2.57;;
2021;SDS011;1015;49.756;6.994;2022-10-16T10:03:47;2.37;;;2.17;;
2021;SDS011;1015;49.756;6.994;2022-10-16T10:06:21;3.30;;;2.10;;
2021;SDS011;1015;49.756;6.994;2022-10-16T10:08:58;2.47;;;1.90;;
2021;SDS011;1015;49.756;6.994;2022-10-16T10:11:41;1.97;;;1.77;;
2021;SDS011;1015;49.756;6.994;2022-10-16T10:14:17;2.50;;;1.83;;
2021;SDS011;1015;49.756;6.994;2022-10-16T10:16:48;1.50;;;1.40;;
2021;SDS011;1015;49.756;6.994;2022-10-16T10:19:18;1.70;;;1.60;;
2021;SDS011;1015;49.756;6.994;2022-10-16T10:21:46;2.60;;;2.40;;
2021;SDS011;1015;49.756;6.994;2022-10-16T10:24:15;2.67;;;2.47;;
2021;SDS011;1015;49.756;6.994;2022-10-16T10:26:47;2.27;;;2.07;;
2021;SDS011;1015;49.756;6.994;2022-10-16T10:29:24;1.80;;;1.70;;
2021;SDS011;1015;49.756;6.994;2022-10-16T10:32:02;1.97;;;1.87;;
2021;SDS011;1015;49.756;6.994;2022-10-16T10:34:42;2.17;;;1.97;;
2021;SDS011;1015;49.756;6.994;2022-10-16T10:37:35;3.43;;;3.03;;
2021;SDS011;1015;49.756;6.994;2022-10-16T10:40:12;3.43;;;2.67;;
2021;SDS011;1015;49.756;6.994;2022-10-16T10:42:51;2.77;;;2.30;;
2021;SDS011;1015;49.756;6.994;2022-10-16T10:45:26;2.00;;;1.80;;
2021;SDS011;1015;49.756;6.994;2022-10-16T10:48:05;2.70;;;2.50;;
2021;SDS011;1015;49.756;6.994;2022-10-16T10:50:48;2.80;;;2.53;;
2021;SDS011;1015;49.756;6.994;2022-10-16T10:53:21;1.97;;;1.87;;
2021;SDS011;1015;49.756;6.994;2022-10-16T10:56:00;2.80;;;2.43;;
2021;SDS011;1015;49.756;6.994;2022-10-16T10:58:50;2.57;;;2.30;;
2021;SDS011;1015;49.756;6.994;2022-10-16T11:01:35;3.00;;;2.50;;
2021;SDS011;1015;49.756;6.994;2022-10-16T11:04:26;3.03;;;2.57;;
2021;SDS011;1015;49.756;6.994;2022-10-16T11:07:09;2.60;;;2.40;;
2021;SDS011;1015;49.756;6.994;2022-10-16T11:09:43;2.30;;;2.10;;
2021;SDS011;1015;49.756;6.994;2022-10-16T11:12:12;2.30;;;2.20;;
2021;SDS011;1015;49.756;6.994;2022-10-16T11:14:45;2.47;;;2.10;;
2021;SDS011;1015;49.756;6.994;2022-10-16T11:17:18;1.93;;;1.80;;
2021;SDS011;1015;49.756;6.994;2022-10-16T11:19:53;1.50;;;1.40;;
2021;SDS011;1015;49.756;6.994;2022-10-16T11:22:25;2.20;;;2.00;;
2021;SDS011;1015;49.756;6.994;2022-10-16T11:24:59;2.20;;;2.00;;
2021;SDS011;1015;49.756;6.994;2022-10-16T11:27:34;1.67;;;1.57;;
2021;SDS011;1015;49.756;6.994;2022-10-16T11:30:06;5.40;;;1.60;;
2021;SDS011;1015;49.756;6.994;2022-10-16T11:32:45;1.97;;;1.70;;
2021;SDS011;1015;49.756;6.994;2022-10-16T11:35:32;2.77;;;2.13;;
2021;SDS011;1015;49.756;6.994;2022-10-16T11:38:08;2.13;;;2.03;;
2021;SDS011;1015;49.756;6.994;2022-10-16T11:40:40;3.00;;;2.70;;
2021;SDS011;1015;49.756;6.994;2022-10-16T11:43:13;4.13;;;3.13;;
2021;SDS011;1015;49.756;6.994;2022-10-16T11:45:48;4.20;;;3.30;;
2021;SDS011;1015;49.756;6.994;2022-10-16T11:48:21;4.80;;;3.80;;
2021;SDS011;1015;49.756;6.994;2022-10-16T11:50:56;4.03;;;3.40;;
2021;SDS011;1015;49.756;6.994;2022-10-16T11:53:32;4.10;;;3.70;;
2021;SDS011;1015;49.756;6.994;2022-10-16T11:56:08;3.93;;;3.63;;
2021;SDS011;1015;49.756;6.994;2022-10-16T11:58:40;3.97;;;3.57;;
2021;SDS011;1015;49.756;6.994;2022-10-16T12:01:16;4.30;;;3.90;;
2021;SDS011;1015;49.756;6.994;2022-10-16T12:03:53;4.40;;;4.00;;
2021;SDS011;1015;49.756;6.994;2022-10-16T12:06:33;6.90;;;6.13;;
2021;SDS011;1015;49.756;6.994;2022-10-16T12:09:03;8.63;;;7.17;;
2021;SDS011;1015;49.756;6.994;2022-10-16T12:11:33;4.43;;;4.03;;
2021;SDS011;1015;49.756;6.994;2022-10-16T12:14:06;6.13;;;4.67;;
2021;SDS011;1015;49.756;6.994;2022-10-16T12:17:01;3.80;;;3.50;;
2021;SDS011;1015;49.756;6.994;2022-10-16T12:19:31;4.30;;;3.90;;
2021;SDS011;1015;49.756;6.994;2022-10-16T12:22:01;5.40;;;4.30;;
2021;SDS011;1015;49.756;6.994;2022-10-16T12:24:31;4.20;;;3.40;;
2021;SDS011;1015;49.756;6.994;2022-10-16T12:27:01;4.50;;;3.70;;
2021;SDS011;1015;49.756;6.994;2022-10-16T12:29:35;5.03;;;4.53;;
2021;SDS011;1015;49.756;6.994;2022-10-16T12:32:05;4.03;;;3.73;;
2021;SDS011;1015;49.756;6.994;2022-10-16T12:34:49;4.30;;;4.00;;
2021;SDS011;1015;49.756;6.994;2022-10-16T12:37:20;8.90;;;7.83;;
2021;SDS011;1015;49.756;6.994;2022-10-16T12:39:50;14.90;;;11.30;;
2021;SDS011;1015;49.756;6.994;2022-10-16T12:42:21;9.90;;;8.87;;
2021;SDS011;1015;49.756;6.994;2022-10-16T12:44:58;5.03;;;4.60;;
2021;SDS011;1015;49.756;6.994;2022-10-16T12:47:35;5.20;;;4.70;;
2021;SDS011;1015;49.756;6.994;2022-10-16T12:50:03;3.53;;;3.33;;
2021;SDS011;1015;49.756;6.994;2022-10-16T12:52:57;3.87;;;3.57;;
2021;SDS011;1015;49.756;6.994;2022-10-16T12:55:24;4.60;;;4.20;;
2021;SDS011;1015;49.756;6.994;2022-10-16T12:58:05;3.90;;;3.60;;
2021;SDS011;1015;49.756;6.994;2022-10-16T13:00:42;3.97;;;3.67;;
2021;SDS011;1015;49.756;6.994;2022-10-16T13:06:23;5.50;;;5.00;;
2021;SDS011;1015;49.756;6.994;2022-10-16T13:11:50;5.53;;;5.03;;
2021;SDS011;1015;49.756;6.994;2022-10-16T13:14:34;5.00;;;4.60;;
2021;SDS011;1015;49.756;6.994;2022-10-16T13:17:15;5.47;;;4.97;;
2021;SDS011;1015;49.756;6.994;2022-10-16T13:19:51;6.67;;;4.90;;
2021;SDS011;1015;49.756;6.994;2022-10-16T13:22:28;5.67;;;5.27;;
2021;SDS011;1015;49.756;6.994;2022-10-16T13:25:05;6.17;;;5.63;;
2021;SDS011;1015;49.756;6.994;2022-10-16T13:27:50;6.17;;;5.30;;
2021;SDS011;1015;49.756;6.994;2022-10-16T13:30:21;6.03;;;5.47;;
2021;SDS011;1015;49.756;6.994;2022-10-16T13:32:53;6.20;;;5.70;;
2021;SDS011;1015;49.756;6.994;2022-10-16T13:35:25;6.80;;;5.93;;
2021;SDS011;1015;49.756;6.994;2022-10-16T13:38:09;6.20;;;5.70;;
2021;SDS011;1015;49.756;6.994;2022-10-16T13:43:28;6.27;;;5.73;;
2021;SDS011;1015;49.756;6.994;2022-10-16T13:45:59;6.50;;;5.90;;
2021;SDS011;1015;49.756;6.994;2022-10-16T13:48:28;6.90;;;6.33;;
2021;SDS011;1015;49.756;6.994;2022-10-16T13:50:59;7.30;;;6.70;;
2021;SDS011;1015;49.756;6.994;2022-10-16T13:53:29;6.57;;;5.93;;
2021;SDS011;1015;49.756;6.994;2022-10-16T13:56:02;7.80;;;6.33;;
2021;SDS011;1015;49.756;6.994;2022-10-16T13:58:31;7.20;;;5.80;;
2021;SDS011;1015;49.756;6.994;2022-10-16T14:00:59;6.40;;;5.90;;
2021;SDS011;1015;49.756;6.994;2022-10-16T14:03:28;5.63;;;5.13;;
2021;SDS011;1015;49.756;6.994;2022-10-16T14:05:57;6.10;;;5.60;;
2021;SDS011;1015;49.756;6.994;2022-10-16T14:08:28;6.00;;;5.50;;
2021;SDS011;1015;49.756;6.994;2022-10-16T14:10:56;5.67;;;5.17;;
2021;SDS011;1015;49.756;6.994;2022-10-16T14:13:29;6.27;;;5.80;;
2021;SDS011;1015;49.756;6.994;2022-10-16T14:15:59;6.20;;;5.60;;
2021;SDS011;1015;49.756;6.994;2022-10-16T14:18:32;7.77;;;5.93;;
2021;SDS011;1015;49.756;6.994;2022-10-16T14:21:03;7.37;;;6.77;;
2021;SDS011;1015;49.756;6.994;2022-10-16T14:23:32;7.40;;;6.80;;
2021;SDS011;1015;49.756;6.994;2022-10-16T14:26:06;8.00;;;7.20;;
2021;SDS011;1015;49.756;6.994;2022-10-16T14:28:41;8.50;;;7.70;;
2021;SDS011;1015;49.756;6.994;2022-10-16T14:31:24;8.40;;;7.70;;
2021;SDS011;1015;49.756;6.994;2022-10-16T14:33:53;9.50;;;8.70;;
2021;SDS011;1015;49.756;6.994;2022-10-16T14:36:20;8.60;;;7.90;;
2021;SDS011;1015;49.756;6.994;2022-10-16T14:38:49;9.27;;;8.27;;
2021;SDS011;1015;49.756;6.994;2022-10-16T14:41:25;8.97;;;8.17;;
2021;SDS011;1015;49.756;6.994;2022-10-16T14:43:54;8.80;;;8.10;;
2021;SDS011;1015;49.756;6.994;2022-10-16T14:46:27;7.90;;;7.20;;
2021;SDS011;1015;49.756;6.994;2022-10-16T14:48:59;7.40;;;6.67;;
2021;SDS011;1015;49.756;6.994;2022-10-16T14:51:29;7.53;;;6.83;;
2021;SDS011;1015;49.756;6.994;2022-10-16T14:53:56;6.93;;;6.30;;
2021;SDS011;1015;49.756;6.994;2022-10-16T14:56:24;5.57;;;5.17;;
2021;SDS011;1015;49.756;6.994;2022-10-16T14:58:56;8.00;;;6.40;;
2021;SDS011;1015;49.756;6.994;2022-10-16T15:01:24;6.33;;;5.57;;
2021;SDS011;1015;49.756;6.994;2022-10-16T15:03:51;6.00;;;5.50;;
2021;SDS011;1015;49.756;6.994;2022-10-16T15:06:19;6.03;;;5.53;;
2021;SDS011;1015;49.756;6.994;2022-10-16T15:08:47;6.80;;;6.17;;
2021;SDS011;1015;49.756;6.994;2022-10-16T15:11:15;7.40;;;6.20;;
2021;SDS011;1015;49.756;6.994;2022-10-16T15:13:44;6.97;;;6.27;;
2021;SDS011;1015;49.756;6.994;2022-10-16T15:16:14;5.53;;;5.07;;
2021;SDS011;1015;49.756;6.994;2022-10-16T15:18:42;5.20;;;4.80;;
2021;SDS011;1015;49.756;6.994;2022-10-16T15:21:11;5.13;;;4.63;;
2021;SDS011;1015;49.756;6.994;2022-10-16T15:23:48;5.50;;;5.07;;
2021;SDS011;1015;49.756;6.994;2022-10-16T15:26:16;4.40;;;4.10;;
2021;SDS011;1015;49.756;6.994;2022-10-16T15:28:43;4.37;;;4.07;;
2021;SDS011;1015;49.756;6.994;2022-10-16T15:31:10;6.30;;;4.53;;
2021;SDS011;1015;49.756;6.994;2022-10-16T15:33:39;5.50;;;4.73;;
2021;SDS011;1015;49.756;6.994;2022-10-16T15:36:06;4.27;;;3.87;;
2021;SDS011;1015;49.756;6.994;2022-10-16T15:38:34;4.27;;;3.87;;
2021;SDS011;1015;49.756;6.994;2022-10-16T15:41:02;4.60;;;4.23;;
2021;SDS011;1015;49.756;6.994;2022-10-16T15:43:29;4.60;;;4.30;;
2021;SDS011;1015;49.756;6.994;2022-10-16T15:46:00;5.10;;;4.70;;
2021;SDS011;1015;49.756;6.994;2022-10-16T15:48:30;4.63;;;4.23;;
2021;SDS011;1015;49.756;6.994;2022-10-16T15:50:57;7.40;;;5.20;;
2021;SDS011;1015;49.756;6.994;2022-10-16T15:53:25;7.13;;;5.53;;
2021;SDS011;1015;49.756;6.994;2022-10-16T15:55:52;6.30;;;5.70;;